Time;durP1;ratioP1;P1;durP2;ratioP2;P2;SDS_P1;SDS_P2;PMS_P1;PMS_P2;Temp;Humidity;BMP_temperature;BMP_pressure;BME280_temperature;BME280_humidity;BME280_pressure;Samples;Min_cycle;Max_cycle;Signal;HPM_P1;HPM_P2
2022/04/24 00:00:08;;;;;;;;;;;;;;;8.72;77.24;94523.06;5115859;28;19955;-73
2022/04/24 00:02:34;;;;;;;;;;;;;;;8.72;77.04;94517.84;5116480;28;19965;-75
2022/04/24 00:05:01;;;;;;;;;;;;;;;8.76;76.80;94514.69;5116217;28;19981;-74
2022/04/24 00:07:27;;;;;;;;;;;;;;;8.99;81.84;94509.09;5116083;28;19958;-73
2022/04/24 00:09:53;;;;;;;;;;;;;;;9.19;76.96;94503.13;5115865;28;19976;-73
2022/04/24 00:12:19;;;;;;;;;;;;;;;9.23;75.69;94495.56;5116047;28;20353;-74
2022/04/24 00:14:46;;;;;;;;;;;;;;;9.20;75.69;94493.44;5115990;28;19954;-73
2022/04/24 00:17:12;;;;;;;;;;;;;;;9.13;75.61;94494.50;5115889;28;19957;-75
2022/04/24 00:19:38;;;;;;;;;;;;;;;9.07;76.35;94492.91;5097555;28;20408;-73
2022/04/24 00:22:04;;;;;;;;;;;;;;;9.02;75.59;94490.25;5115574;28;20430;-73
2022/04/24 00:24:32;;;;;;;;;;;;;;;8.94;76.15;94486.34;5097452;28;19960;-73
2022/04/24 00:26:58;;;;;;;;;;;;;;;8.88;75.97;94481.31;5115699;28;19959;-73
2022/04/24 00:29:24;;;;;;;;;;;;;;;8.81;75.70;94492.00;5115436;28;20337;-73
2022/04/24 00:31:50;;;;;;;;;;;;;;;8.74;76.74;94483.63;5097354;28;19959;-74
2022/04/24 00:34:16;;;;;;;;;;;;;;;8.70;76.72;94487.78;5115391;28;19994;-73
2022/04/24 00:36:43;;;;;;;;;;;;;;;8.64;76.36;94478.34;5115287;28;19959;-74
2022/04/24 00:39:10;;;;;;;;;;;;;;;8.59;76.81;94484.34;5115350;28;19963;-73
2022/04/24 00:41:43;;;;;;;;;;;;;;;8.58;75.74;94482.75;5115230;28;19955;-73
2022/04/24 00:44:09;;;;;;;;;;;;;;;8.56;77.28;94482.22;5097124;28;19948;-72
2022/04/24 00:46:37;;;;;;;;;;;;;;;8.56;77.98;94478.81;5097174;28;20006;-73
2022/04/24 00:49:10;;;;;;;;;;;;;;;8.56;76.90;94482.22;5114864;28;19963;-73
2022/04/24 00:51:37;;;;;;;;;;;;;;;8.57;77.07;94470.72;5115133;28;19949;-72
2022/04/24 00:54:07;;;;;;;;;;;;;;;8.58;77.36;94468.91;5115056;28;19960;-72
2022/04/24 00:56:33;;;;;;;;;;;;;;;8.59;78.08;94467.84;5114874;28;19964;-73
2022/04/24 00:59:01;;;;;;;;;;;;;;;8.57;78.10;94465.50;5114780;28;20327;-73
2022/04/24 01:01:27;;;;;;;;;;;;;;;8.57;78.08;94464.69;5114920;28;19956;-74
2022/04/24 01:03:54;;;;;;;;;;;;;;;8.54;78.98;94461.56;5114443;28;19973;-73
2022/04/24 01:06:19;;;;;;;;;;;;;;;8.54;78.06;94458.16;5115241;28;19965;-73
2022/04/24 01:08:45;;;;;;;;;;;;;;;8.56;78.07;94466.53;5095965;28;19984;-74
2022/04/24 01:11:11;;;;;;;;;;;;;;;8.58;77.97;94466.28;5114630;28;20427;-73
2022/04/24 01:13:37;;;;;;;;;;;;;;;8.59;76.94;94470.47;5114784;28;19954;-73
2022/04/24 01:16:03;;;;;;;;;;;;;;;8.60;78.08;94472.81;5114759;28;19949;-73
2022/04/24 01:18:30;;;;;;;;;;;;;;;8.63;76.53;94474.13;5114806;28;20002;-73
2022/04/24 01:20:56;;;;;;;;;;;;;;;8.69;78.49;94479.16;5096343;28;19956;-72
2022/04/24 01:23:22;;;;;;;;;;;;;;;8.74;77.89;94473.94;5114539;28;19960;-73
2022/04/24 01:25:47;;;;;;;;;;;;;;;8.78;79.10;94476.03;5114174;28;19959;-73
2022/04/24 01:28:16;;;;;;;;;;;;;;;8.79;77.87;94477.63;5080246;28;19970;-72
2022/04/24 01:30:42;;;;;;;;;;;;;;;8.80;77.93;94485.22;5114236;28;19982;-72
2022/04/24 01:33:08;;;;;;;;;;;;;;;8.84;78.12;94495.94;5096401;28;20025;-72
2022/04/24 01:35:34;;;;;;;;;;;;;;;8.84;77.37;94503.75;5114124;28;19956;-73
2022/04/24 01:38:00;;;;;;;;;;;;;;;8.87;77.89;94517.13;5113261;28;19953;-73
2022/04/24 01:40:26;;;;;;;;;;;;;;;8.88;77.71;94530.97;5114610;28;19961;-72
2022/04/24 01:42:52;;;;;;;;;;;;;;;8.92;77.48;94543.31;5114618;28;19960;-72
2022/04/24 01:45:18;;;;;;;;;;;;;;;8.95;77.99;94552.47;5114186;28;19953;-73
2022/04/24 01:47:43;;;;;;;;;;;;;;;8.92;77.55;94553.75;5114364;28;19960;-72
2022/04/24 01:50:09;;;;;;;;;;;;;;;8.98;77.49;94551.94;5114243;28;19967;-73
2022/04/24 01:52:35;;;;;;;;;;;;;;;9.00;78.17;94551.69;5095999;28;19948;-73
2022/04/24 01:55:01;;;;;;;;;;;;;;;9.05;78.91;94560.34;5113924;28;20054;-73
2022/04/24 01:57:27;;;;;;;;;;;;;;;9.06;78.69;94551.47;5114079;28;19968;-74
2022/04/24 01:59:53;;;;;;;;;;;;;;;9.09;78.98;94563.22;5114214;28;20017;-73
2022/04/24 02:02:19;;;;;;;;;;;;;;;9.11;79.27;94579.44;5096390;28;19975;-73
2022/04/24 02:04:45;;;;;;;;;;;;;;;9.13;79.32;94572.13;5113776;28;19991;-73
2022/04/24 02:07:11;;;;;;;;;;;;;;;9.13;79.88;94580.78;5114081;28;20319;-74
2022/04/24 02:09:38;;;;;;;;;;;;;;;9.14;80.12;94579.72;5114405;28;19974;-74
2022/04/24 02:12:05;;;;;;;;;;;;;;;9.17;80.13;94575.03;5114093;28;20413;-73
2022/04/24 02:14:31;;;;;;;;;;;;;;;9.17;81.09;94570.59;5098352;28;19958;-73
2022/04/24 02:16:57;;;;;;;;;;;;;;;9.17;80.98;94575.03;5116457;28;19988;-74
2022/04/24 02:19:22;;;;;;;;;;;;;;;9.17;81.00;94565.34;5114419;28;20436;-75
2022/04/24 02:21:48;;;;;;;;;;;;;;;9.16;81.58;94560.41;5118120;28;19948;-74
2022/04/24 02:24:14;;;;;;;;;;;;;;;9.13;81.05;94554.66;5117899;28;19955;-74
2022/04/24 02:26:40;;;;;;;;;;;;;;;9.13;81.29;94554.66;5117750;28;19963;-74
2022/04/24 02:29:06;;;;;;;;;;;;;;;9.12;81.63;94554.91;5118226;28;19961;-75
2022/04/24 02:31:32;;;;;;;;;;;;;;;9.12;81.21;94557.50;5117906;28;19955;-74
2022/04/24 02:33:58;;;;;;;;;;;;;;;9.07;80.25;94553.03;5117840;28;20005;-74
2022/04/24 02:36:24;;;;;;;;;;;;;;;9.00;81.17;94562.16;5082492;28;20008;-74
2022/04/24 02:38:50;;;;;;;;;;;;;;;8.89;81.07;94562.09;5117819;28;19957;-74
2022/04/24 02:41:21;;;;;;;;;;;;;;;8.81;81.21;94551.34;5083978;28;19957;-74
2022/04/24 02:43:46;;;;;;;;;;;;;;;8.76;83.39;94557.31;5099369;28;20032;-73
2022/04/24 02:46:12;;;;;;;;;;;;;;;8.73;84.61;94555.19;5082761;28;20040;-73
2022/04/24 02:48:38;;;;;;;;;;;;;;;8.73;83.87;94566.47;5099295;28;20001;-73
2022/04/24 02:51:04;;;;;;;;;;;;;;;8.73;83.76;94553.41;5099129;28;20075;-73
2022/04/24 02:53:30;;;;;;;;;;;;;;;8.76;83.74;94549.47;5099220;28;20017;-72
2022/04/24 02:55:56;;;;;;;;;;;;;;;8.79;83.60;94561.25;5117433;28;20463;-73
2022/04/24 02:58:22;;;;;;;;;;;;;;;8.78;84.27;94554.44;5086757;28;20456;-73
2022/04/24 03:00:51;;;;;;;;;;;;;;;8.77;84.68;94551.03;5117367;28;19962;-73
2022/04/24 03:03:20;;;;;;;;;;;;;;;8.77;84.56;94561.50;5117101;28;19980;-74
2022/04/24 03:05:48;;;;;;;;;;;;;;;8.78;84.39;94551.81;5117212;28;19953;-73
2022/04/24 03:08:17;;;;;;;;;;;;;;;8.77;84.26;94552.88;5117232;28;19960;-73
2022/04/24 03:10:44;;;;;;;;;;;;;;;8.77;84.18;94558.88;5098923;28;19976;-75
2022/04/24 03:13:10;;;;;;;;;;;;;;;8.77;83.98;94556.25;5116872;28;19955;-76
2022/04/24 03:15:37;;;;;;;;;;;;;;;8.79;84.54;94558.63;5098896;28;19944;-75
2022/04/24 03:18:04;;;;;;;;;;;;;;;8.81;83.72;94562.56;5117040;28;19948;-74
2022/04/24 03:20:30;;;;;;;;;;;;;;;8.83;84.08;94565.72;5116913;28;20601;-74
2022/04/24 03:22:56;;;;;;;;;;;;;;;8.86;83.71;94567.03;5098554;28;20039;-74
2022/04/24 03:25:22;;;;;;;;;;;;;;;8.89;83.61;94574.38;5117047;28;20005;-73
2022/04/24 03:27:47;;;;;;;;;;;;;;;8.91;83.64;94561.84;5116727;28;20408;-74
2022/04/24 03:30:13;;;;;;;;;;;;;;;8.91;83.65;94574.91;5116318;28;19973;-75
2022/04/24 03:32:39;;;;;;;;;;;;;;;8.92;83.70;94579.91;5098230;28;19959;-76
2022/04/24 03:35:07;;;;;;;;;;;;;;;8.92;83.96;94577.28;5098276;28;20409;-75
2022/04/24 03:37:33;;;;;;;;;;;;;;;8.95;83.72;94583.81;5116376;28;19945;-75
2022/04/24 03:39:59;;;;;;;;;;;;;;;8.96;83.37;94585.38;5098747;28;19952;-74
2022/04/24 03:42:26;;;;;;;;;;;;;;;8.95;83.69;94589.06;5098547;28;20326;-75
2022/04/24 03:44:56;;;;;;;;;;;;;;;8.95;83.96;94589.06;5098425;28;20449;-75
2022/04/24 03:47:22;;;;;;;;;;;;;;;8.97;83.47;94597.44;5116008;28;19955;-78
2022/04/24 03:49:47;;;;;;;;;;;;;;;8.97;83.67;94602.66;5116589;28;20037;-76
2022/04/24 03:52:13;;;;;;;;;;;;;;;8.98;85.01;94604.22;5081490;28;19961;-77
2022/04/24 03:54:40;;;;;;;;;;;;;;;9.06;84.97;94624.66;5116067;28;20049;-77
2022/04/24 03:57:05;;;;;;;;;;;;;;;9.07;85.25;94634.09;5098343;28;19966;-77
2022/04/24 03:59:31;;;;;;;;;;;;;;;9.05;86.71;94651.06;5064608;28;19956;-76
2022/04/24 04:01:57;;;;;;;;;;;;;;;8.85;88.33;94657.72;5116112;28;20046;-76
2022/04/24 04:04:23;;;;;;;;;;;;;;;8.74;87.03;94671.75;5115857;28;20485;-77
2022/04/24 04:06:49;;;;;;;;;;;;;;;8.62;89.73;94669.31;5097854;28;19957;-75
2022/04/24 04:09:15;;;;;;;;;;;;;;;8.49;87.85;94680.19;5097775;28;19966;-76
2022/04/24 04:11:41;;;;;;;;;;;;;;;8.36;86.67;94683.16;5115775;28;19951;-77
2022/04/24 04:14:07;;;;;;;;;;;;;;;8.25;88.13;94690.91;5115849;28;20021;-77
2022/04/24 04:16:33;;;;;;;;;;;;;;;8.21;87.45;94695.03;5097450;28;19975;-76
2022/04/24 04:18:59;;;;;;;;;;;;;;;8.17;87.61;94703.59;5116121;28;19963;-77
2022/04/24 04:21:24;;;;;;;;;;;;;;;8.11;88.32;94706.16;5097426;28;19947;-75
2022/04/24 04:23:50;;;;;;;;;;;;;;;8.03;86.65;94706.59;5115675;28;19965;-77
2022/04/24 04:26:17;;;;;;;;;;;;;;;7.95;87.75;94707.00;5115559;28;19966;-76
2022/04/24 04:28:44;;;;;;;;;;;;;;;7.86;87.88;94716.31;5097272;28;19967;-77
2022/04/24 04:31:11;;;;;;;;;;;;;;;7.78;89.42;94717.50;5097686;28;19974;-77
2022/04/24 04:33:37;;;;;;;;;;;;;;;7.68;86.69;94728.59;5098351;28;19955;-75
2022/04/24 04:36:03;;;;;;;;;;;;;;;7.56;88.13;94725.34;5115409;28;19950;-75
2022/04/24 04:38:29;;;;;;;;;;;;;;;7.49;86.83;94728.09;5115804;28;19961;-75
2022/04/24 04:40:55;;;;;;;;;;;;;;;7.44;89.42;94741.06;5097203;28;19957;-75
2022/04/24 04:43:21;;;;;;;;;;;;;;;7.40;89.56;94739.19;5096645;28;19959;-75
2022/04/24 04:45:47;;;;;;;;;;;;;;;7.34;87.52;94750.56;5096939;28;20062;-75
2022/04/24 04:48:13;;;;;;;;;;;;;;;7.34;87.55;94745.38;5082419;28;19961;-75
2022/04/24 04:50:39;;;;;;;;;;;;;;;7.34;88.37;94758.41;5081082;28;19981;-76
2022/04/24 04:53:05;;;;;;;;;;;;;;;7.28;88.25;94753.09;5097233;28;20320;-75
2022/04/24 04:55:31;;;;;;;;;;;;;;;7.26;88.42;94765.56;5115660;28;19984;-75
2022/04/24 04:57:58;;;;;;;;;;;;;;;7.20;87.14;94752.72;5098782;28;19964;-75
2022/04/24 05:00:24;;;;;;;;;;;;;;;7.13;87.23;94763.31;5117176;28;19966;-76
2022/04/24 05:02:50;;;;;;;;;;;;;;;7.03;86.84;94763.13;5097179;28;19963;-76
2022/04/24 05:05:16;;;;;;;;;;;;;;;6.95;87.62;94766.13;5115105;28;19958;-75
2022/04/24 05:07:42;;;;;;;;;;;;;;;6.88;86.95;94767.06;5114960;28;20379;-76
2022/04/24 05:10:08;;;;;;;;;;;;;;;6.89;87.81;94771.28;5096904;28;20325;-76
2022/04/24 05:12:35;;;;;;;;;;;;;;;6.83;87.82;94769.59;5114996;28;19956;-75
2022/04/24 05:15:02;;;;;;;;;;;;;;;6.78;88.47;94774.72;5114611;28;19960;-76
2022/04/24 05:17:27;;;;;;;;;;;;;;;6.74;89.50;94778.03;5097013;28;19957;-75
2022/04/24 05:19:54;;;;;;;;;;;;;;;6.71;89.53;94772.25;5079581;28;20011;-76
2022/04/24 05:22:19;;;;;;;;;;;;;;;6.69;89.82;94776.13;5079966;28;19985;-76
2022/04/24 05:24:45;;;;;;;;;;;;;;;6.67;88.29;94776.34;5114554;28;19954;-76
2022/04/24 05:27:11;;;;;;;;;;;;;;;6.66;89.55;94768.81;5096413;28;20381;-76
2022/04/24 05:29:58;;;;;;;;;;;;;;;6.66;89.78;94774.00;5089133;28;19965;-76
2022/04/24 05:32:24;;;;;;;;;;;;;;;6.66;89.93;94776.63;5096227;28;19965;-78
2022/04/24 05:34:50;;;;;;;;;;;;;;;6.64;89.80;94778.66;5114818;28;19992;-77
2022/04/24 05:37:16;;;;;;;;;;;;;;;6.61;89.49;94776.50;5114556;28;20492;-78
2022/04/24 05:39:42;;;;;;;;;;;;;;;6.56;89.99;94776.44;5096125;28;19953;-78
2022/04/24 05:42:08;;;;;;;;;;;;;;;6.52;91.48;94786.50;5096477;28;20363;-77
2022/04/24 05:44:33;;;;;;;;;;;;;;;6.49;91.43;94794.81;5096606;28;19951;-78
2022/04/24 05:46:59;;;;;;;;;;;;;;;6.49;90.92;94789.59;5096303;28;20324;-77
2022/04/24 05:49:25;;;;;;;;;;;;;;;6.50;91.11;94791.16;5114126;28;20298;-77
2022/04/24 05:51:51;;;;;;;;;;;;;;;6.50;90.13;94791.16;5095904;28;20410;-78
2022/04/24 05:54:17;;;;;;;;;;;;;;;6.47;89.90;94789.81;5114403;28;19961;-77
2022/04/24 05:56:43;;;;;;;;;;;;;;;6.43;91.58;94778.28;5114665;28;19988;-76
2022/04/24 05:59:09;;;;;;;;;;;;;;;6.42;91.82;94802.72;5096078;28;20058;-77
2022/04/24 06:01:35;;;;;;;;;;;;;;;6.44;90.79;94797.28;5114149;28;19963;-76
2022/04/24 06:04:01;;;;;;;;;;;;;;;6.47;89.62;94794.25;5092147;28;19994;-76
2022/04/24 06:06:29;;;;;;;;;;;;;;;6.46;89.34;94777.81;5093532;28;19953;-76
2022/04/24 06:08:54;;;;;;;;;;;;;;;6.46;90.37;94785.63;5092311;28;20337;-76
2022/04/24 06:11:20;;;;;;;;;;;;;;;6.47;91.16;94776.81;5075648;28;19972;-76
2022/04/24 06:13:47;;;;;;;;;;;;;;;6.48;90.50;94782.78;5075718;28;19962;-75
2022/04/24 06:16:13;;;;;;;;;;;;;;;6.49;91.03;94789.59;5093888;28;20440;-77
2022/04/24 06:18:39;;;;;;;;;;;;;;;6.49;91.50;94790.38;5093512;28;19957;-77
2022/04/24 06:21:05;;;;;;;;;;;;;;;6.51;92.49;94795.38;5093518;28;19958;-77
2022/04/24 06:23:31;;;;;;;;;;;;;;;6.57;96.05;94791.81;5093677;28;19962;-77
2022/04/24 06:25:58;;;;;;;;;;;;;;;6.97;97.68;94775.31;5094109;28;20405;-75
2022/04/24 06:28:24;;;;;;;;;;;;;;;7.42;93.61;94768.44;5092835;28;20330;-76
2022/04/24 06:30:50;;;;;;;;;;;;;;;7.75;88.34;94770.19;5076229;28;20453;-76
2022/04/24 06:33:22;;;;;;;;;;;;;;;8.03;86.44;94769.22;5076463;28;19957;-76
2022/04/24 06:35:48;;;;;;;;;;;;;;;8.31;85.21;94770.06;5093555;28;19956;-77
2022/04/24 06:38:13;;;;;;;;;;;;;;;8.51;83.69;94782.59;5092332;28;19959;-76
2022/04/24 06:40:40;;;;;;;;;;;;;;;8.52;81.32;94784.16;5092247;28;20375;-76
2022/04/24 06:43:06;;;;;;;;;;;;;;;8.19;81.81;94792.91;5093295;28;19978;-76
2022/04/24 06:45:36;;;;;;;;;;;;;;;7.87;83.21;94802.19;5092199;28;19954;-76
2022/04/24 06:48:15;;;;;;;;;;;;;;;7.63;84.25;94798.97;5093784;28;19956;-77
2022/04/24 06:50:45;;;;;;;;;;;;;;;7.39;85.80;94806.22;5094087;28;19974;-77
2022/04/24 06:53:11;;;;;;;;;;;;;;;7.24;87.33;94804.13;5100267;28;19934;-79
2022/04/24 06:55:38;;;;;;;;;;;;;;;7.19;87.38;94804.06;5110935;28;19947;-77
2022/04/24 06:58:05;;;;;;;;;;;;;;;7.14;88.22;94811.81;5096340;28;19953;-77
2022/04/24 07:00:32;;;;;;;;;;;;;;;7.07;88.51;94806.72;5092853;28;19966;-77
2022/04/24 07:02:58;;;;;;;;;;;;;;;7.01;88.38;94807.66;5094891;28;19977;-77
2022/04/24 07:05:25;;;;;;;;;;;;;;;6.98;89.13;94789.91;5113554;28;20420;-76
2022/04/24 07:07:51;;;;;;;;;;;;;;;6.97;88.02;94792.75;5117402;28;19953;-77
2022/04/24 07:10:17;;;;;;;;;;;;;;;6.96;89.81;94789.34;5116712;28;19963;-76
2022/04/24 07:12:44;;;;;;;;;;;;;;;6.97;88.16;94793.56;5116826;28;19992;-77
2022/04/24 07:15:10;;;;;;;;;;;;;;;6.93;89.14;94789.84;5098829;28;19951;-76
2022/04/24 07:17:36;;;;;;;;;;;;;;;6.91;89.74;94787.47;5081767;28;19953;-76
2022/04/24 07:20:04;;;;;;;;;;;;;;;6.86;91.15;94776.16;5098999;28;19957;-78
2022/04/24 07:22:39;;;;;;;;;;;;;;;6.84;91.57;94776.38;5116957;28;19957;-76
2022/04/24 07:25:05;;;;;;;;;;;;;;;6.86;91.59;94789.19;5098849;28;19954;-77
2022/04/24 07:27:31;;;;;;;;;;;;;;;6.85;89.93;94783.19;5098924;28;19958;-76
2022/04/24 07:30:23;;;;;;;;;;;;;;;6.87;91.22;94778.53;5078061;28;20335;-75
2022/04/24 07:32:53;;;;;;;;;;;;;;;6.89;91.93;94780.91;5098589;28;19948;-76
2022/04/24 07:35:23;;;;;;;;;;;;;;;6.94;90.88;94780.97;5098527;28;20311;-76
2022/04/24 07:37:49;;;;;;;;;;;;;;;7.03;92.13;94779.56;5098509;28;19951;-76
2022/04/24 07:40:16;;;;;;;;;;;;;;;7.14;90.42;94785.75;5116576;28;19955;-77
2022/04/24 07:42:53;;;;;;;;;;;;;;;7.18;90.25;94794.69;5098270;28;19948;-77
2022/04/24 07:45:23;;;;;;;;;;;;;;;7.22;89.79;94789.75;5116516;28;19953;-78
2022/04/24 07:47:50;;;;;;;;;;;;;;;7.29;90.84;94793.00;5082705;28;19948;-76
2022/04/24 07:50:16;;;;;;;;;;;;;;;7.33;89.51;94801.94;5098444;28;19968;-77
2022/04/24 07:52:43;;;;;;;;;;;;;;;7.40;89.11;94805.16;5116279;28;19953;-76
2022/04/24 07:55:12;;;;;;;;;;;;;;;7.45;89.44;94814.88;5116367;28;19962;-77
2022/04/24 07:57:38;;;;;;;;;;;;;;;7.46;90.74;94819.88;5098166;28;20010;-77
2022/04/24 08:00:04;;;;;;;;;;;;;;;7.43;89.24;94820.34;5081092;28;19953;-77
2022/04/24 08:02:30;;;;;;;;;;;;;;;7.43;88.53;94829.97;5116042;28;20403;-77
2022/04/24 08:04:56;;;;;;;;;;;;;;;7.43;88.94;94830.78;5116546;28;19976;-75
2022/04/24 08:07:22;;;;;;;;;;;;;;;7.47;90.33;94834.47;5097893;28;19959;-75
2022/04/24 08:09:49;;;;;;;;;;;;;;;7.51;89.44;94832.19;5116112;28;19954;-77
2022/04/24 08:12:15;;;;;;;;;;;;;;;7.51;90.77;94838.19;5097424;28;19981;-75
2022/04/24 08:14:41;;;;;;;;;;;;;;;7.49;88.77;94831.63;5082425;28;19959;-78
2022/04/24 08:17:07;;;;;;;;;;;;;;;7.49;88.93;94839.47;5101744;28;20466;-76
2022/04/24 08:19:33;;;;;;;;;;;;;;;7.45;88.66;94844.34;5119531;28;20409;-76
2022/04/24 08:22:01;;;;;;;;;;;;;;;7.43;89.60;94845.63;5117847;28;19961;-76
2022/04/24 08:24:27;;;;;;;;;;;;;;;7.44;90.48;94845.41;5098376;28;19957;-76
2022/04/24 08:26:53;;;;;;;;;;;;;;;7.45;89.79;94856.59;5115841;28;19957;-76
2022/04/24 08:29:19;;;;;;;;;;;;;;;7.42;89.96;94847.44;5097542;28;19946;-77
2022/04/24 08:31:45;;;;;;;;;;;;;;;7.41;91.41;94845.88;5097435;28;19971;-77
2022/04/24 08:34:11;;;;;;;;;;;;;;;7.43;91.11;94843.00;5115535;28;20010;-77
2022/04/24 08:36:37;;;;;;;;;;;;;;;7.50;91.30;94848.88;5097415;28;19958;-77
2022/04/24 08:39:02;;;;;;;;;;;;;;;7.52;91.42;94842.38;5115261;28;19978;-77
2022/04/24 08:41:49;;;;;;;;;;;;;;;7.50;92.17;94847.06;5078989;28;20331;-76
2022/04/24 08:44:15;;;;;;;;;;;;;;;7.44;92.34;94845.41;5097590;28;19952;-76
2022/04/24 08:46:43;;;;;;;;;;;;;;;7.42;92.39;94839.63;5096967;28;20036;-77
2022/04/24 08:49:10;;;;;;;;;;;;;;;7.47;92.72;94851.94;5115478;28;19956;-77
2022/04/24 08:51:38;;;;;;;;;;;;;;;7.50;91.37;94857.50;5117227;28;20447;-77
2022/04/24 08:54:04;;;;;;;;;;;;;;;7.52;92.82;94868.47;5098495;28;20437;-76
2022/04/24 08:56:29;;;;;;;;;;;;;;;7.54;91.85;94863.03;5116576;28;19951;-76
2022/04/24 08:58:55;;;;;;;;;;;;;;;7.59;91.79;94865.69;5116491;28;20429;-77
2022/04/24 09:01:21;;;;;;;;;;;;;;;7.65;91.50;94869.19;5116154;28;19956;-76
2022/04/24 09:03:47;;;;;;;;;;;;;;;7.69;91.70;94870.28;5096649;28;19989;-77
2022/04/24 09:06:23;;;;;;;;;;;;;;;7.72;92.62;94870.59;5096555;28;19963;-77
2022/04/24 09:08:49;;;;;;;;;;;;;;;7.69;94.57;94870.28;5115196;28;19953;-76
2022/04/24 09:11:17;;;;;;;;;;;;;;;7.92;93.93;94872.72;5115302;28;19989;-77
2022/04/24 09:16:38;;;;;;;;;;;;;;;7.90;89.89;94876.59;5102518;28;20407;-77
2022/04/24 09:19:04;;;;;;;;;;;;;;;7.84;90.08;94875.72;5096786;28;19957;-77
2022/04/24 09:21:30;;;;;;;;;;;;;;;7.83;90.94;94875.97;5115053;28;20421;-78
2022/04/24 09:24:00;;;;;;;;;;;;;;;7.83;92.66;94879.38;5096875;28;19961;-77
2022/04/24 09:26:26;;;;;;;;;;;;;;;7.83;92.62;94873.34;5114507;28;19970;-76
2022/04/24 09:28:52;;;;;;;;;;;;;;;7.89;93.07;94881.00;5114135;28;19982;-77
2022/04/24 09:31:18;;;;;;;;;;;;;;;7.94;93.41;94869.88;5114481;28;19955;-77
2022/04/24 09:33:44;;;;;;;;;;;;;;;8.00;93.06;94870.72;5096823;28;20356;-77
2022/04/24 09:36:10;;;;;;;;;;;;;;;8.05;93.05;94874.19;5096123;28;20293;-77
2022/04/24 09:38:43;;;;;;;;;;;;;;;8.08;92.17;94876.34;5114388;28;19946;-77
2022/04/24 09:41:22;;;;;;;;;;;;;;;8.08;93.06;94880.75;5114275;28;20417;-77
2022/04/24 09:43:49;;;;;;;;;;;;;;;8.04;93.92;94877.84;5114442;28;19957;-78
2022/04/24 09:46:26;;;;;;;;;;;;;;;8.06;93.78;94888.03;5114461;28;19954;-77
2022/04/24 09:48:52;;;;;;;;;;;;;;;8.09;94.79;94885.75;5115016;28;19955;-77
2022/04/24 09:51:20;;;;;;;;;;;;;;;8.16;94.21;94892.63;5114322;28;19966;-77
2022/04/24 09:53:46;;;;;;;;;;;;;;;8.17;92.79;94896.78;5114181;28;19954;-77
2022/04/24 09:56:13;;;;;;;;;;;;;;;8.12;93.44;94900.91;5114066;28;19967;-76
2022/04/24 09:58:40;;;;;;;;;;;;;;;8.09;93.30;94908.47;5114422;28;20297;-76
2022/04/24 10:01:08;;;;;;;;;;;;;;;8.09;93.05;94905.84;5095887;28;19973;-77
2022/04/24 10:03:36;;;;;;;;;;;;;;;8.07;93.45;94906.06;5114322;28;20341;-77
2022/04/24 10:06:04;;;;;;;;;;;;;;;8.11;94.76;94909.00;5114225;28;19959;-77
2022/04/24 10:08:32;;;;;;;;;;;;;;;8.11;93.21;94907.19;5095896;28;19942;-77
2022/04/24 10:11:01;;;;;;;;;;;;;;;8.10;93.23;94910.03;5095227;28;20347;-77
2022/04/24 10:13:27;;;;;;;;;;;;;;;8.13;93.28;94907.72;5114116;28;20441;-77
2022/04/24 10:16:00;;;;;;;;;;;;;;;8.18;93.93;94907.00;5114173;28;20325;-77
2022/04/24 10:18:29;;;;;;;;;;;;;;;8.23;94.06;94907.09;5113995;28;19947;-76
2022/04/24 10:21:22;;;;;;;;;;;;;;;8.27;94.42;94902.97;5079090;28;19959;-77
2022/04/24 10:23:48;;;;;;;;;;;;;;;8.28;93.82;94907.16;5109969;28;20393;-76
2022/04/24 10:26:22;;;;;;;;;;;;;;;8.32;94.64;94908.25;5078704;28;20045;-77
2022/04/24 10:28:48;;;;;;;;;;;;;;;8.35;95.08;94912.19;5113638;28;19962;-76
2022/04/24 10:31:15;;;;;;;;;;;;;;;8.38;93.80;94913.53;5095739;28;19965;-77
2022/04/24 10:33:51;;;;;;;;;;;;;;;8.42;94.06;94910.25;5095818;28;19955;-76
2022/04/24 10:36:17;;;;;;;;;;;;;;;8.44;93.95;94907.38;5113641;28;19962;-76
2022/04/24 10:38:59;;;;;;;;;;;;;;;8.46;93.48;94911.34;5095830;28;20022;-76
2022/04/24 10:41:27;;;;;;;;;;;;;;;8.52;94.18;94922.63;5115742;28;20325;-76
2022/04/24 10:43:57;;;;;;;;;;;;;;;8.58;93.95;94921.66;5117572;28;19962;-77
2022/04/24 10:46:30;;;;;;;;;;;;;;;8.66;93.73;94917.84;5117693;28;19960;-77
2022/04/24 10:49:08;;;;;;;;;;;;;;;8.66;92.70;94920.47;5090440;28;20297;-76
2022/04/24 10:51:35;;;;;;;;;;;;;;;8.70;93.41;94922.34;5104732;28;19957;-76
2022/04/24 10:54:04;;;;;;;;;;;;;;;8.73;92.85;94927.09;5117776;28;19956;-77
2022/04/24 10:56:31;;;;;;;;;;;;;;;8.96;94.64;94927.84;5099752;28;19954;-77
2022/04/24 10:59:14;;;;;;;;;;;;;;;9.09;92.46;94924.88;5099978;28;19964;-76
2022/04/24 11:01:42;;;;;;;;;;;;;;;9.13;90.84;94939.03;5090020;28;19973;-76
2022/04/24 11:04:11;;;;;;;;;;;;;;;9.11;90.67;94933.25;5100005;28;20444;-77
2022/04/24 11:06:37;;;;;;;;;;;;;;;9.11;90.38;94938.50;5117825;28;19961;-76
2022/04/24 11:09:10;;;;;;;;;;;;;;;9.08;89.65;94935.56;5099674;28;20048;-77
2022/04/24 11:11:46;;;;;;;;;;;;;;;9.05;90.37;94933.44;5118349;28;19975;-76
2022/04/24 11:14:12;;;;;;;;;;;;;;;9.01;90.02;94934.97;5098978;28;20344;-76
2022/04/24 11:16:38;;;;;;;;;;;;;;;8.98;90.23;94933.63;5098710;28;20280;-77
2022/04/24 11:19:04;;;;;;;;;;;;;;;8.95;90.50;94931.50;5116947;28;19959;-77
2022/04/24 11:21:39;;;;;;;;;;;;;;;8.92;91.29;94945.06;5098979;28;19976;-77
2022/04/24 11:24:06;;;;;;;;;;;;;;;8.91;90.67;94939.03;5117049;28;20396;-77
2022/04/24 11:26:32;;;;;;;;;;;;;;;8.86;90.44;94940.81;5098681;28;19966;-77
2022/04/24 11:29:07;;;;;;;;;;;;;;;8.87;91.63;94939.78;5116835;28;19959;-77
2022/04/24 11:31:33;;;;;;;;;;;;;;;8.88;92.48;94941.34;5117000;28;20438;-77
2022/04/24 11:34:00;;;;;;;;;;;;;;;8.88;91.43;94941.34;5116790;28;19959;-76
2022/04/24 11:36:31;;;;;;;;;;;;;;;8.91;92.65;94944.28;5116518;28;20311;-77
2022/04/24 11:38:57;;;;;;;;;;;;;;;8.97;92.46;94955.59;5098535;28;19961;-77
2022/04/24 11:41:27;;;;;;;;;;;;;;;8.93;90.10;94951.88;5098182;28;20394;-77
2022/04/24 11:43:58;;;;;;;;;;;;;;;8.88;92.02;94950.00;5098303;28;19955;-77
2022/04/24 11:51:53;;;;;;;;;;;;;;;8.86;91.83;94956.47;5115984;28;19976;-77
2022/04/24 11:54:19;;;;;;;;;;;;;;;8.89;92.41;94961.25;5098382;28;19946;-76
2022/04/24 11:56:50;;;;;;;;;;;;;;;8.91;92.43;94964.41;5098461;28;19954;-79
2022/04/24 11:59:20;;;;;;;;;;;;;;;8.92;92.47;94966.78;5099225;28;19957;-77
2022/04/24 12:01:54;;;;;;;;;;;;;;;8.96;91.94;94968.91;5117851;28;19946;-77
2022/04/24 12:04:21;;;;;;;;;;;;;;;8.99;93.22;94971.81;5116503;28;20330;-77
2022/04/24 12:06:48;;;;;;;;;;;;;;;9.02;93.22;94976.56;5097994;28;20412;-76
2022/04/24 12:09:20;;;;;;;;;;;;;;;9.05;92.07;94981.31;5116041;28;19953;-78
2022/04/24 12:11:46;;;;;;;;;;;;;;;9.07;91.50;94979.25;5115987;28;19989;-76
2022/04/24 12:14:14;;;;;;;;;;;;;;;9.10;90.25;94981.34;5115862;28;19960;-77
2022/04/24 12:16:45;;;;;;;;;;;;;;;9.11;91.29;94982.94;5097499;28;19964;-77
2022/04/24 12:19:12;;;;;;;;;;;;;;;9.10;91.01;94983.97;5098106;28;19955;-77
2022/04/24 12:21:46;;;;;;;;;;;;;;;9.16;91.60;94984.03;5097491;28;20422;-76
2022/04/24 12:24:11;;;;;;;;;;;;;;;9.46;93.34;94986.19;5097533;28;19943;-77
2022/04/24 12:26:51;;;;;;;;;;;;;;;9.59;90.21;94993.63;5115383;28;19956;-78
2022/04/24 12:29:17;;;;;;;;;;;;;;;9.60;89.65;94992.63;5115670;28;19959;-77
2022/04/24 12:31:46;;;;;;;;;;;;;;;9.57;89.41;94992.31;5115298;28;19967;-77
2022/04/24 12:34:13;;;;;;;;;;;;;;;9.53;90.42;94997.25;5097231;28;19963;-74
2022/04/24 12:36:49;;;;;;;;;;;;;;;9.48;90.63;94995.38;5115276;28;19957;-75
2022/04/24 12:39:21;;;;;;;;;;;;;;;9.48;91.75;94994.59;5082396;28;19954;-75
2022/04/24 12:41:47;;;;;;;;;;;;;;;9.49;92.34;94999.56;5097307;28;19953;-75
2022/04/24 12:44:13;;;;;;;;;;;;;;;9.52;90.60;94999.06;5096930;28;19960;-74
2022/04/24 12:46:39;;;;;;;;;;;;;;;9.55;91.52;95005.63;5080078;28;19981;-75
2022/04/24 12:49:05;;;;;;;;;;;;;;;9.54;90.93;94993.59;5115216;28;19958;-74
2022/04/24 12:51:31;;;;;;;;;;;;;;;9.54;92.61;95006.69;5096784;28;19970;-76
2022/04/24 12:53:58;;;;;;;;;;;;;;;9.60;92.31;95000.47;5115217;28;20002;-76
2022/04/24 12:56:24;;;;;;;;;;;;;;;9.66;91.31;94996.06;5096560;28;19979;-75
2022/04/24 12:58:50;;;;;;;;;;;;;;;9.69;90.05;94990.34;5097005;28;19957;-74
2022/04/24 13:01:16;;;;;;;;;;;;;;;9.73;89.12;94992.22;5096577;28;19958;-74
2022/04/24 13:03:46;;;;;;;;;;;;;;;9.73;88.22;94989.59;5095671;28;20440;-74
2022/04/24 13:06:12;;;;;;;;;;;;;;;9.77;88.53;94994.34;5114939;28;20327;-75